Time;durP1;ratioP1;P1;durP2;ratioP2;P2;SDS_P1;SDS_P2;PMS_P1;PMS_P2;Temp;Humidity;BMP_temperature;BMP_pressure;BME280_temperature;BME280_humidity;BME280_pressure;Samples;Min_cycle;Max_cycle;Signal;HPM_P1;HPM_P2
2022/12/16 00:01:08;;;;;;;0.20;0.20;;;;;;;-7.59;100.00;95641.22;5062049;28;20508;-72
2022/12/16 00:03:56;;;;;;;0.20;0.20;;;;;;;-7.55;100.00;95636.50;5050068;28;21012;-71
2022/12/16 00:06:42;;;;;;;0.20;0.20;;;;;;;-7.63;100.00;95636.47;5024711;28;20285;-72
2022/12/16 00:09:28;;;;;;;0.20;0.20;;;;;;;-7.72;100.00;95622.63;5049660;28;20036;-72
2022/12/16 00:12:14;;;;;;;0.15;0.15;;;;;;;-7.71;100.00;95629.47;5041797;28;20036;-69
2022/12/16 00:15:00;;;;;;;0.15;0.15;;;;;;;-7.67;100.00;95637.78;5048557;28;20285;-71
2022/12/16 00:17:46;;;;;;;0.20;0.20;;;;;;;-7.66;100.00;95629.81;5052751;28;20041;-69
2022/12/16 00:20:32;;;;;;;0.20;0.20;;;;;;;-7.64;100.00;95617.47;5052008;28;20160;-71
2022/12/16 00:23:19;;;;;;;0.20;0.20;;;;;;;-7.62;100.00;95622.53;5037046;28;20047;-71
2022/12/16 00:26:05;;;;;;;0.20;0.20;;;;;;;-7.59;100.00;95623.03;5047701;28;20131;-72
2022/12/16 00:28:51;;;;;;;0.20;0.20;;;;;;;-7.60;100.00;95613.59;5049891;28;20036;-70
2022/12/16 00:31:37;;;;;;;0.20;0.20;;;;;;;-7.53;100.00;95620.78;5063168;28;20263;-72
2022/12/16 00:34:22;;;;;;;0.20;0.20;;;;;;;-7.55;100.00;95613.13;5071516;28;20044;-70
2022/12/16 00:37:10;;;;;;;0.20;0.20;;;;;;;-7.49;100.00;95619.47;5074200;28;20560;-72
2022/12/16 00:39:56;;;;;;;0.20;0.20;;;;;;;-7.47;100.00;95626.16;5073869;28;20275;-72
2022/12/16 00:42:42;;;;;;;0.15;0.15;;;;;;;-7.49;100.00;95625.50;5058830;28;20122;-72
2022/12/16 00:45:29;;;;;;;0.20;0.20;;;;;;;-7.51;100.00;95631.81;5074582;28;20342;-69
2022/12/16 00:48:15;;;;;;;0.20;0.20;;;;;;;-7.55;100.00;95625.28;5072644;28;20376;-72
2022/12/16 00:51:01;;;;;;;0.20;0.20;;;;;;;-7.61;100.00;95624.16;5070588;28;20226;-70
2022/12/16 00:53:47;;;;;;;0.20;0.20;;;;;;;-7.66;100.00;95629.81;5071673;28;20028;-71
2022/12/16 00:56:33;;;;;;;0.20;0.20;;;;;;;-7.86;100.00;95615.44;5073546;28;20036;-71
2022/12/16 00:59:22;;;;;;;0.20;0.20;;;;;;;-7.80;100.00;95621.78;5072433;28;20242;-71
2022/12/16 01:02:09;;;;;;;0.20;0.20;;;;;;;-7.78;100.00;95628.47;5057652;28;20170;-72
2022/12/16 01:04:55;;;;;;;0.20;0.20;;;;;;;-7.72;100.00;95632.22;5073214;28;20811;-72
2022/12/16 01:07:41;;;;;;;0.20;0.20;;;;;;;-7.77;100.00;95632.69;5072657;28;20043;-72
2022/12/16 01:10:27;;;;;;;0.20;0.20;;;;;;;-7.82;100.00;95636.72;5059909;28;20040;-73
2022/12/16 01:13:13;;;;;;;0.17;0.17;;;;;;;-7.88;100.00;95638.97;5072751;27;20600;-73
2022/12/16 01:16:00;;;;;;;0.20;0.20;;;;;;;-7.84;100.00;95644.69;5072768;28;20245;-72
2022/12/16 01:18:48;;;;;;;0.20;0.20;;;;;;;-7.88;100.00;95638.16;5073308;28;20040;-71
2022/12/16 01:21:34;;;;;;;0.20;0.20;;;;;;;-7.90;100.00;95642.69;5070710;28;20323;-69
2022/12/16 01:24:20;;;;;;;0.20;0.20;;;;;;;-7.98;100.00;95637.47;5069611;28;21361;-72
2022/12/16 01:27:06;;;;;;;0.10;0.10;;;;;;;-7.92;100.00;95657.63;5072262;28;20502;-72
2022/12/16 01:29:52;;;;;;;0.20;0.20;;;;;;;-7.96;100.00;95651.91;5072935;28;20193;-72
2022/12/16 01:32:38;;;;;;;0.20;0.20;;;;;;;-8.01;100.00;95656.78;5072772;28;20082;-73
2022/12/16 01:35:23;;;;;;;0.20;0.20;;;;;;;-8.10;100.00;95652.47;5072973;28;20213;-70
2022/12/16 01:38:09;;;;;;;0.20;0.20;;;;;;;-8.23;100.00;95660.69;5060849;28;20051;-72
2022/12/16 01:40:55;;;;;;;0.20;0.20;;;;;;;-8.21;100.00;95655.31;5071528;28;20058;-70
2022/12/16 01:43:43;;;;;;;0.20;0.20;;;;;;;-8.30;100.00;95670.03;5073802;28;20268;-72
2022/12/16 01:46:29;;;;;;;0.20;0.20;;;;;;;-8.30;100.00;95654.47;5073135;28;20070;-72
2022/12/16 01:49:32;;;;;;;0.20;0.20;;;;;;;-8.27;100.00;95671.50;5072302;28;20043;-73
2022/12/16 01:52:25;;;;;;;0.20;0.20;;;;;;;-8.27;100.00;95672.31;5072243;28;20116;-72
2022/12/16 01:55:19;;;;;;;0.20;0.20;;;;;;;-8.38;100.00;95667.41;5069026;28;20044;-72
2022/12/16 01:58:13;;;;;;;0.20;0.20;;;;;;;-8.34;100.00;95676.47;5068955;28;20039;-73
2022/12/16 02:01:01;;;;;;;0.20;0.20;;;;;;;-8.43;100.00;95683.44;5065207;28;20048;-72
2022/12/16 02:03:47;;;;;;;0.10;0.10;;;;;;;-8.43;100.00;95670.44;5037476;28;20601;-72
2022/12/16 02:06:33;;;;;;;0.20;0.20;;;;;;;-8.33;100.00;95672.91;5050743;28;20093;-73
2022/12/16 02:09:20;;;;;;;0.20;0.20;;;;;;;-8.08;100.00;95683.50;5051021;28;20052;-72
2022/12/16 02:12:24;;;;;;;0.20;0.20;;;;;;;-8.06;100.00;95681.56;5063157;28;20047;-73
2022/12/16 02:15:25;;;;;;;0.20;0.20;;;;;;;-8.15;100.00;95686.69;5049296;28;20271;-71
2022/12/16 02:18:33;;;;;;;0.20;0.20;;;;;;;-8.25;100.00;95674.75;5052233;28;20041;-70
2022/12/16 02:21:22;;;;;;;0.20;0.20;;;;;;;-8.25;100.00;95682.53;5042685;28;20048;-72
2022/12/16 02:24:28;;;;;;;0.20;0.20;;;;;;;-8.40;100.00;95679.75;5052085;28;20250;-71
2022/12/16 02:27:23;;;;;;;0.20;0.20;;;;;;;-8.35;100.00;95687.88;5052889;28;20320;-72
2022/12/16 02:30:27;;;;;;;0.20;0.20;;;;;;;-8.46;100.00;95682.94;5052828;28;20524;-72
2022/12/16 02:33:28;;;;;;;0.20;0.20;;;;;;;-8.52;100.00;95683.53;5051954;28;20041;-73
2022/12/16 02:36:36;;;;;;;0.20;0.20;;;;;;;-8.59;100.00;95675.50;5051632;28;20129;-73
2022/12/16 02:39:34;;;;;;;0.20;0.20;;;;;;;-8.61;100.00;95679.22;5042546;28;20073;-71
2022/12/16 02:42:30;;;;;;;0.20;0.20;;;;;;;-8.61;100.00;95682.63;5053505;28;20044;-73
2022/12/16 02:45:23;;;;;;;0.20;0.20;;;;;;;-8.65;100.00;95690.84;5051873;28;20049;-72
2022/12/16 02:48:08;;;;;;;0.20;0.20;;;;;;;-8.66;100.00;95695.22;5051503;28;20044;-73
2022/12/16 02:50:54;;;;;;;0.20;0.20;;;;;;;-8.66;100.00;95699.59;5053362;28;20115;-72
2022/12/16 02:53:42;;;;;;;0.20;0.20;;;;;;;-8.75;100.00;95694.34;5050801;28;20036;-72
2022/12/16 02:56:39;;;;;;;0.20;0.20;;;;;;;-8.74;100.00;95697.75;5049614;28;20399;-70
2022/12/16 02:59:43;;;;;;;0.20;0.20;;;;;;;-8.82;100.00;95703.69;5051448;28;20182;-72
2022/12/16 03:02:40;;;;;;;0.20;0.20;;;;;;;-8.79;100.00;95702.59;5034594;28;20102;-72
2022/12/16 03:05:30;;;;;;;0.20;0.20;;;;;;;-8.76;100.00;95705.69;5048901;28;20028;-72
2022/12/16 03:08:29;;;;;;;0.20;0.20;;;;;;;-8.78;100.00;95699.84;5051430;28;20041;-72
2022/12/16 03:11:15;;;;;;;0.10;0.10;;;;;;;-8.78;100.00;95693.84;5051943;28;20039;-71
2022/12/16 03:14:05;;;;;;;0.20;0.20;;;;;;;-8.71;100.00;95702.66;5050502;28;20037;-71
2022/12/16 03:16:51;;;;;;;0.20;0.20;;;;;;;-8.80;100.00;95693.16;5043471;28;20072;-70
2022/12/16 03:19:40;;;;;;;0.20;0.20;;;;;;;-8.82;100.00;95695.09;5046763;28;20267;-73
2022/12/16 03:22:35;;;;;;;0.20;0.20;;;;;;;-8.82;100.00;95701.09;5036854;28;20213;-71
2022/12/16 03:25:22;;;;;;;0.20;0.20;;;;;;;-8.80;100.00;95693.16;5049848;28;20467;-72
2022/12/16 03:28:38;;;;;;;0.20;0.20;;;;;;;-8.78;100.00;95692.06;5051976;28;20046;-72
2022/12/16 03:31:53;;;;;;;0.20;0.20;;;;;;;-8.76;100.00;95687.53;5045771;28;20703;-71
2022/12/16 03:34:51;;;;;;;0.20;0.20;;;;;;;-8.77;100.00;95698.06;5045874;28;20774;-72
2022/12/16 03:37:37;;;;;;;0.20;0.20;;;;;;;-8.72;100.00;95691.44;5072945;28;20241;-73
2022/12/16 03:40:26;;;;;;;0.20;0.20;;;;;;;-8.75;100.00;95690.94;5072350;28;20059;-72
2022/12/16 03:43:14;;;;;;;0.20;0.20;;;;;;;-8.75;100.00;95689.16;5072486;28;20040;-72
2022/12/16 03:46:05;;;;;;;0.20;0.20;;;;;;;-8.75;100.00;95694.34;5070407;28;20113;-71
2022/12/16 03:48:51;;;;;;;0.20;0.20;;;;;;;-8.79;100.00;95682.66;5069728;28;20332;-72
2022/12/16 03:51:37;;;;;;;0.28;0.28;;;;;;;-8.87;100.00;95692.09;5071297;28;20043;-72
2022/12/16 03:54:24;;;;;;;0.20;0.20;;;;;;;-8.82;100.00;95688.13;5071832;28;20165;-71
2022/12/16 03:57:11;;;;;;;0.20;0.20;;;;;;;-8.81;100.00;95689.75;5051172;28;20040;-72
2022/12/16 03:59:57;;;;;;;0.20;0.20;;;;;;;-8.92;100.00;95679.59;5068789;28;20731;-72
2022/12/16 04:02:43;;;;;;;0.20;0.20;;;;;;;-8.86;100.00;95701.53;5071960;28;20070;-72
2022/12/16 04:05:29;;;;;;;0.20;0.20;;;;;;;-8.90;100.00;95695.81;5070147;28;20046;-70
2022/12/16 04:08:15;;;;;;;0.20;0.20;;;;;;;-8.85;100.00;95705.75;5075977;28;20044;-72
2022/12/16 04:26:29;;;;;;;0.20;0.20;;;;;;;-9.08;100.00;95713.13;5076532;28;20047;-71
2022/12/16 04:29:15;;;;;;;0.20;0.20;;;;;;;-9.12;100.00;95715.19;5074643;28;20154;-72
2022/12/16 04:32:01;;;;;;;0.20;0.20;;;;;;;-9.13;100.00;95720.53;5061044;28;20051;-73
2022/12/16 04:34:47;;;;;;;0.20;0.20;;;;;;;-9.10;100.00;95700.34;5071585;28;20189;-72
